sensor_id;sensor_type;location;lat;lon;timestamp;pressure;altitude;pressure_sealevel;temperature;humidity
29359;BME280;16347;53.232;6.556;2022-09-03T00:01:00;101419.78;;;23.61;33.08
29359;BME280;16347;53.232;6.556;2022-09-03T00:03:33;101412.16;;;23.57;33.05
29359;BME280;16347;53.232;6.556;2022-09-03T00:06:11;101417.31;;;23.53;33.45
29359;BME280;16347;53.232;6.556;2022-09-03T00:08:50;101412.84;;;23.52;33.08
29359;BME280;16347;53.232;6.556;2022-09-03T00:11:25;101419.00;;;23.54;33.08
29359;BME280;16347;53.232;6.556;2022-09-03T00:13:58;101416.69;;;23.51;33.15
29359;BME280;16347;53.232;6.556;2022-09-03T00:16:41;101415.41;;;23.54;32.83
29359;BME280;16347;53.232;6.556;2022-09-03T00:19:18;101413.53;;;23.47;33.21
29359;BME280;16347;53.232;6.556;2022-09-03T00:21:56;101408.59;;;23.49;33.10
29359;BME280;16347;53.232;6.556;2022-09-03T00:24:37;101405.19;;;23.47;33.18
29359;BME280;16347;53.232;6.556;2022-09-03T00:27:13;101413.13;;;23.44;33.38
29359;BME280;16347;53.232;6.556;2022-09-03T00:29:47;101410.59;;;23.42;33.20
29359;BME280;16347;53.232;6.556;2022-09-03T00:32:25;101408.44;;;23.44;33.25
29359;BME280;16347;53.232;6.556;2022-09-03T00:35:03;101405.31;;;23.34;33.50
29359;BME280;16347;53.232;6.556;2022-09-03T00:37:35;101406.16;;;23.35;33.44
29359;BME280;16347;53.232;6.556;2022-09-03T00:40:12;101404.63;;;23.39;33.29
29359;BME280;16347;53.232;6.556;2022-09-03T00:42:53;101406.16;;;23.35;33.63
29359;BME280;16347;53.232;6.556;2022-09-03T00:45:33;101400.84;;;23.33;33.43
29359;BME280;16347;53.232;6.556;2022-09-03T00:48:17;101402.38;;;23.29;33.50
29359;BME280;16347;53.232;6.556;2022-09-03T00:51:04;101408.00;;;23.23;33.79
29359;BME280;16347;53.232;6.556;2022-09-03T00:53:46;101407.22;;;23.16;33.53
29359;BME280;16347;53.232;6.556;2022-09-03T00:56:25;101400.59;;;23.17;33.77
29359;BME280;16347;53.232;6.556;2022-09-03T00:59:10;101400.59;;;23.17;33.11
29359;BME280;16347;53.232;6.556;2022-09-03T01:01:48;101405.03;;;23.18;33.71
29359;BME280;16347;53.232;6.556;2022-09-03T01:04:30;101406.28;;;23.22;33.67
29359;BME280;16347;53.232;6.556;2022-09-03T01:07:12;101408.91;;;23.17;33.46
29359;BME280;16347;53.232;6.556;2022-09-03T01:09:52;101398.94;;;23.09;33.44
29359;BME280;16347;53.232;6.556;2022-09-03T01:12:34;101402.78;;;23.08;33.67
29359;BME280;16347;53.232;6.556;2022-09-03T01:15:10;101402.38;;;23.05;33.68
29359;BME280;16347;53.232;6.556;2022-09-03T01:18:01;101406.81;;;23.12;33.81
29359;BME280;16347;53.232;6.556;2022-09-03T01:20:41;101402.56;;;23.10;33.59
29359;BME280;16347;53.232;6.556;2022-09-03T01:23:40;101410.91;;;23.10;33.62
29359;BME280;16347;53.232;6.556;2022-09-03T01:26:27;101407.94;;;23.05;34.01
29359;BME280;16347;53.232;6.556;2022-09-03T01:29:07;101406.94;;;22.99;33.85
29359;BME280;16347;53.232;6.556;2022-09-03T01:31:44;101412.88;;;23.03;33.88
29359;BME280;16347;53.232;6.556;2022-09-03T01:34:23;101406.03;;;23.05;33.88
29359;BME280;16347;53.232;6.556;2022-09-03T01:37:03;101408.84;;;22.98;34.16
29359;BME280;16347;53.232;6.556;2022-09-03T01:39:42;101402.91;;;22.95;34.52
29359;BME280;16347;53.232;6.556;2022-09-03T01:42:18;101408.06;;;22.91;34.87
29359;BME280;16347;53.232;6.556;2022-09-03T01:45:28;101402.44;;;22.98;34.66
29359;BME280;16347;53.232;6.556;2022-09-03T01:48:09;101409.88;;;22.79;35.48
29359;BME280;16347;53.232;6.556;2022-09-03T01:50:45;101409.94;;;22.73;36.02
29359;BME280;16347;53.232;6.556;2022-09-03T01:53:30;101408.78;;;22.80;35.55
29359;BME280;16347;53.232;6.556;2022-09-03T01:56:14;101414.78;;;22.77;35.75
29359;BME280;16347;53.232;6.556;2022-09-03T01:58:48;101406.06;;;22.74;35.30
29359;BME280;16347;53.232;6.556;2022-09-03T02:01:28;101411.16;;;22.77;35.33
29359;BME280;16347;53.232;6.556;2022-09-03T02:03:57;101408.16;;;22.78;35.58
29359;BME280;16347;53.232;6.556;2022-09-03T02:06:26;101409.69;;;22.74;35.20
29359;BME280;16347;53.232;6.556;2022-09-03T02:08:55;101408.44;;;22.70;35.39
29359;BME280;16347;53.232;6.556;2022-09-03T02:11:23;101406.97;;;22.61;35.78
29359;BME280;16347;53.232;6.556;2022-09-03T02:13:53;101407.84;;;22.62;36.15
29359;BME280;16347;53.232;6.556;2022-09-03T02:16:27;101404.59;;;22.71;36.16
29359;BME280;16347;53.232;6.556;2022-09-03T02:18:58;101403.75;;;22.71;36.16
29359;BME280;16347;53.232;6.556;2022-09-03T02:21:32;101407.56;;;22.70;35.93
29359;BME280;16347;53.232;6.556;2022-09-03T02:24:02;101405.50;;;22.90;35.33
29359;BME280;16347;53.232;6.556;2022-09-03T02:26:30;101406.31;;;22.66;35.41
29359;BME280;16347;53.232;6.556;2022-09-03T02:29:00;101396.50;;;22.63;36.14
29359;BME280;16347;53.232;6.556;2022-09-03T02:31:31;101402.94;;;22.57;35.74
29359;BME280;16347;53.232;6.556;2022-09-03T02:34:01;101397.66;;;22.56;36.29
29359;BME280;16347;53.232;6.556;2022-09-03T02:36:34;101403.41;;;22.54;36.36
29359;BME280;16347;53.232;6.556;2022-09-03T02:39:05;101401.09;;;22.51;36.59
29359;BME280;16347;53.232;6.556;2022-09-03T02:41:36;101400.22;;;22.50;36.52
29359;BME280;16347;53.232;6.556;2022-09-03T02:44:11;101405.59;;;22.45;36.53
29359;BME280;16347;53.232;6.556;2022-09-03T02:46:47;101402.84;;;22.45;36.63
29359;BME280;16347;53.232;6.556;2022-09-03T02:49:18;101407.28;;;22.46;36.54
29359;BME280;16347;53.232;6.556;2022-09-03T02:51:46;101400.97;;;22.39;36.33
29359;BME280;16347;53.232;6.556;2022-09-03T02:54:15;101401.66;;;22.28;36.27
29359;BME280;16347;53.232;6.556;2022-09-03T02:56:48;101396.31;;;22.27;36.48
29359;BME280;16347;53.232;6.556;2022-09-03T02:59:18;101389.94;;;22.26;36.89
29359;BME280;16347;53.232;6.556;2022-09-03T03:01:50;101395.72;;;22.25;37.03
29359;BME280;16347;53.232;6.556;2022-09-03T03:04:22;101390.16;;;22.25;36.83
29359;BME280;16347;53.232;6.556;2022-09-03T03:06:52;101396.38;;;22.20;36.46
29359;BME280;16347;53.232;6.556;2022-09-03T03:09:23;101405.94;;;22.24;36.82
29359;BME280;16347;53.232;6.556;2022-09-03T03:11:52;101403.38;;;22.23;36.31
29359;BME280;16347;53.232;6.556;2022-09-03T03:14:21;101395.75;;;22.18;36.35
29359;BME280;16347;53.232;6.556;2022-09-03T03:16:51;101403.81;;;22.20;36.47
29359;BME280;16347;53.232;6.556;2022-09-03T03:19:19;101409.41;;;22.13;36.34
29359;BME280;16347;53.232;6.556;2022-09-03T03:21:47;101400.69;;;22.10;36.38
29359;BME280;16347;53.232;6.556;2022-09-03T03:24:15;101405.59;;;22.08;37.04
29359;BME280;16347;53.232;6.556;2022-09-03T03:26:43;101403.72;;;22.02;36.44
29359;BME280;16347;53.232;6.556;2022-09-03T03:29:14;101398.78;;;22.04;36.69
29359;BME280;16347;53.232;6.556;2022-09-03T03:31:43;101406.06;;;21.98;36.56
29359;BME280;16347;53.232;6.556;2022-09-03T03:34:12;101403.47;;;22.03;36.88
29359;BME280;16347;53.232;6.556;2022-09-03T03:36:41;101403.91;;;22.00;36.41
29359;BME280;16347;53.232;6.556;2022-09-03T03:39:09;101408.84;;;21.98;37.03
29359;BME280;16347;53.232;6.556;2022-09-03T03:41:37;101406.97;;;21.92;36.92
29359;BME280;16347;53.232;6.556;2022-09-03T03:44:06;101407.56;;;21.94;37.38
29359;BME280;16347;53.232;6.556;2022-09-03T03:46:36;101407.16;;;21.90;36.51
29359;BME280;16347;53.232;6.556;2022-09-03T03:49:04;101408.84;;;21.98;37.12
29359;BME280;16347;53.232;6.556;2022-09-03T03:51:35;101408.63;;;21.93;37.32
29359;BME280;16347;53.232;6.556;2022-09-03T03:54:04;101408.44;;;21.94;37.14
29359;BME280;16347;53.232;6.556;2022-09-03T03:56:33;101409.94;;;21.90;36.98
29359;BME280;16347;53.232;6.556;2022-09-03T03:59:02;101403.09;;;21.93;37.21
29359;BME280;16347;53.232;6.556;2022-09-03T04:01:30;101410.75;;;21.97;37.04
29359;BME280;16347;53.232;6.556;2022-09-03T04:03:58;101415.88;;;21.94;37.70
29359;BME280;16347;53.232;6.556;2022-09-03T04:06:27;101406.69;;;22.00;37.94
29359;BME280;16347;53.232;6.556;2022-09-03T04:08:56;101413.69;;;22.03;37.50
29359;BME280;16347;53.232;6.556;2022-09-03T04:11:25;101409.28;;;21.95;37.11
29359;BME280;16347;53.232;6.556;2022-09-03T04:13:54;101411.84;;;21.90;37.33
29359;BME280;16347;53.232;6.556;2022-09-03T04:16:24;101409.28;;;21.88;37.83
29359;BME280;16347;53.232;6.556;2022-09-03T04:18:53;101409.50;;;21.87;37.94
29359;BME280;16347;53.232;6.556;2022-09-03T04:21:23;101408.88;;;21.85;37.66
29359;BME280;16347;53.232;6.556;2022-09-03T04:23:56;101409.50;;;21.87;37.35
29359;BME280;16347;53.232;6.556;2022-09-03T04:26:26;101398.25;;;21.82;37.52
29359;BME280;16347;53.232;6.556;2022-09-03T04:28:57;101407.16;;;21.84;37.42
29359;BME280;16347;53.232;6.556;2022-09-03T04:31:27;101407.59;;;21.81;37.50
29359;BME280;16347;53.232;6.556;2022-09-03T04:33:55;101395.66;;;21.80;37.91
29359;BME280;16347;53.232;6.556;2022-09-03T04:36:25;101398.25;;;21.82;37.78
29359;BME280;16347;53.232;6.556;2022-09-03T04:38:54;101401.22;;;21.80;37.99
29359;BME280;16347;53.232;6.556;2022-09-03T04:41:28;101399.75;;;21.78;37.63
29359;BME280;16347;53.232;6.556;2022-09-03T04:43:57;101387.19;;;21.75;38.04
29359;BME280;16347;53.232;6.556;2022-09-03T04:46:27;101395.69;;;21.74;37.55
29359;BME280;16347;53.232;6.556;2022-09-03T04:49:00;101396.13;;;21.71;37.57
29359;BME280;16347;53.232;6.556;2022-09-03T04:51:28;101393.16;;;21.72;37.76
29359;BME280;16347;53.232;6.556;2022-09-03T04:53:59;101393.81;;;21.68;37.59
29359;BME280;16347;53.232;6.556;2022-09-03T04:56:30;101391.91;;;21.62;37.63
29359;BME280;16347;53.232;6.556;2022-09-03T04:59:01;101396.81;;;21.53;38.09
29359;BME280;16347;53.232;6.556;2022-09-03T05:01:31;101395.97;;;21.53;38.18
29359;BME280;16347;53.232;6.556;2022-09-03T05:04:00;101388.97;;;21.50;37.92
29359;BME280;16347;53.232;6.556;2022-09-03T05:06:29;101390.66;;;21.51;38.09
29359;BME280;16347;53.232;6.556;2022-09-03T05:08:58;101394.72;;;21.48;38.10
29359;BME280;16347;53.232;6.556;2022-09-03T05:11:27;101387.91;;;21.51;40.79
29359;BME280;16347;53.232;6.556;2022-09-03T05:13:58;101398.06;;;21.70;44.83
29359;BME280;16347;53.232;6.556;2022-09-03T05:16:27;101393.97;;;21.92;46.01
29359;BME280;16347;53.232;6.556;2022-09-03T05:18:58;101392.56;;;22.15;44.75
29359;BME280;16347;53.232;6.556;2022-09-03T05:21:27;101397.13;;;22.34;43.72
29359;BME280;16347;53.232;6.556;2022-09-03T05:23:59;101400.28;;;22.44;40.50
29359;BME280;16347;53.232;6.556;2022-09-03T05:26:29;101396.59;;;22.50;40.42
29359;BME280;16347;53.232;6.556;2022-09-03T05:29:00;101394.03;;;22.55;40.08
29359;BME280;16347;53.232;6.556;2022-09-03T05:31:29;101392.91;;;22.63;38.96
29359;BME280;16347;53.232;6.556;2022-09-03T05:34:00;101393.97;;;22.62;38.99
29359;BME280;16347;53.232;6.556;2022-09-03T05:36:30;101389.69;;;22.66;39.05
29359;BME280;16347;53.232;6.556;2022-09-03T05:38:59;101383.25;;;22.72;37.45
29359;BME280;16347;53.232;6.556;2022-09-03T05:41:28;101379.03;;;22.69;37.79
29359;BME280;16347;53.232;6.556;2022-09-03T05:43:56;101376.25;;;22.69;38.22
29359;BME280;16347;53.232;6.556;2022-09-03T05:46:28;101378.97;;;22.76;38.23
29359;BME280;16347;53.232;6.556;2022-09-03T05:48:58;101388.56;;;22.73;37.40
29359;BME280;16347;53.232;6.556;2022-09-03T05:51:30;101383.66;;;22.75;37.71
29359;BME280;16347;53.232;6.556;2022-09-03T05:53:58;101372.97;;;22.79;37.33
29359;BME280;16347;53.232;6.556;2022-09-03T05:56:29;101383.22;;;22.78;37.38
29359;BME280;16347;53.232;6.556;2022-09-03T05:58:59;101378.28;;;22.80;37.29
29359;BME280;16347;53.232;6.556;2022-09-03T06:01:31;101386.59;;;22.80;37.62
29359;BME280;16347;53.232;6.556;2022-09-03T06:04:02;101376.81;;;22.78;36.97
29359;BME280;16347;53.232;6.556;2022-09-03T06:06:31;101385.53;;;22.81;36.66
29359;BME280;16347;53.232;6.556;2022-09-03T06:09:03;101380.84;;;22.82;37.17
29359;BME280;16347;53.232;6.556;2022-09-03T06:11:33;101381.81;;;22.69;35.88
29359;BME280;16347;53.232;6.556;2022-09-03T06:14:03;101384.97;;;22.73;37.03
29359;BME280;16347;53.232;6.556;2022-09-03T06:16:35;101381.97;;;22.74;37.70
29359;BME280;16347;53.232;6.556;2022-09-03T06:19:04;101381.28;;;22.79;37.04
29359;BME280;16347;53.232;6.556;2022-09-03T06:21:36;101385.59;;;22.75;36.38
29359;BME280;16347;53.232;6.556;2022-09-03T06:24:09;101386.91;;;22.72;36.56
29359;BME280;16347;53.232;6.556;2022-09-03T06:26:38;101390.94;;;22.70;37.02
29359;BME280;16347;53.232;6.556;2022-09-03T06:29:09;101380.09;;;22.68;37.02
29359;BME280;16347;53.232;6.556;2022-09-03T06:31:39;101390.75;;;22.65;36.48
29359;BME280;16347;53.232;6.556;2022-09-03T06:34:07;101381.50;;;22.46;36.83
29359;BME280;16347;53.232;6.556;2022-09-03T06:36:38;101386.22;;;22.45;37.42
29359;BME280;16347;53.232;6.556;2022-09-03T06:39:07;101384.94;;;22.41;37.14
29359;BME280;16347;53.232;6.556;2022-09-03T06:41:35;101374.72;;;22.42;37.39
29359;BME280;16347;53.232;6.556;2022-09-03T06:44:05;101382.38;;;22.40;37.68
29359;BME280;16347;53.232;6.556;2022-09-03T06:46:40;101384.03;;;22.47;37.78
29359;BME280;16347;53.232;6.556;2022-09-03T06:49:10;101379.75;;;22.52;38.08
29359;BME280;16347;53.232;6.556;2022-09-03T06:51:39;101382.34;;;22.46;37.55
29359;BME280;16347;53.232;6.556;2022-09-03T06:54:10;101385.34;;;22.45;37.46
29359;BME280;16347;53.232;6.556;2022-09-03T06:56:39;101385.75;;;22.48;37.94
29359;BME280;16347;53.232;6.556;2022-09-03T06:59:09;101382.09;;;22.55;37.59
29359;BME280;16347;53.232;6.556;2022-09-03T07:01:39;101388.69;;;22.54;37.35
29359;BME280;16347;53.232;6.556;2022-09-03T07:04:12;101385.75;;;22.48;37.56
29359;BME280;16347;53.232;6.556;2022-09-03T07:06:42;101385.31;;;22.52;38.39
29359;BME280;16347;53.232;6.556;2022-09-03T07:09:11;101387.47;;;22.49;37.21
29359;BME280;16347;53.232;6.556;2022-09-03T07:11:41;101390.03;;;22.44;37.96
29359;BME280;16347;53.232;6.556;2022-09-03T07:14:14;101383.47;;;22.39;37.32
29359;BME280;16347;53.232;6.556;2022-09-03T07:16:44;101392.44;;;22.34;37.24
29359;BME280;16347;53.232;6.556;2022-09-03T07:19:13;101394.38;;;22.34;38.33
29359;BME280;16347;53.232;6.556;2022-09-03T07:21:42;101388.22;;;22.32;37.95
29359;BME280;16347;53.232;6.556;2022-09-03T07:24:16;101386.91;;;22.34;38.89
29359;BME280;16347;53.232;6.556;2022-09-03T07:26:45;101391.78;;;22.39;38.25
29359;BME280;16347;53.232;6.556;2022-09-03T07:29:15;101392.16;;;22.49;38.73
29359;BME280;16347;53.232;6.556;2022-09-03T07:31:49;101389.09;;;22.57;37.43
29359;BME280;16347;53.232;6.556;2022-09-03T07:34:19;101389.50;;;22.61;37.40
29359;BME280;16347;53.232;6.556;2022-09-03T07:36:51;101388.63;;;22.60;37.34
29359;BME280;16347;53.232;6.556;2022-09-03T07:39:20;101391.41;;;22.60;37.21
29359;BME280;16347;53.232;6.556;2022-09-03T07:41:49;101382.94;;;22.55;36.81
29359;BME280;16347;53.232;6.556;2022-09-03T07:44:24;101385.66;;;22.62;37.62
29359;BME280;16347;53.232;6.556;2022-09-03T07:46:59;101399.25;;;22.70;37.65
29359;BME280;16347;53.232;6.556;2022-09-03T07:49:30;101388.97;;;22.77;36.94
29359;BME280;16347;53.232;6.556;2022-09-03T07:51:59;101393.63;;;22.83;36.72
29359;BME280;16347;53.232;6.556;2022-09-03T07:54:31;101389.56;;;22.85;37.10
29359;BME280;16347;53.232;6.556;2022-09-03T07:57:02;101382.44;;;22.96;37.17
29359;BME280;16347;53.232;6.556;2022-09-03T07:59:31;101387.53;;;22.99;36.42
29359;BME280;16347;53.232;6.556;2022-09-03T08:02:02;101387.97;;;22.96;37.27
29359;BME280;16347;53.232;6.556;2022-09-03T08:04:36;101400.28;;;23.00;36.77
29359;BME280;16347;53.232;6.556;2022-09-03T08:07:10;101396.75;;;22.93;36.27
29359;BME280;16347;53.232;6.556;2022-09-03T08:09:41;101394.66;;;22.88;36.81
29359;BME280;16347;53.232;6.556;2022-09-03T08:12:13;101391.13;;;22.75;37.10
29359;BME280;16347;53.232;6.556;2022-09-03T08:14:43;101389.75;;;22.84;36.74
29359;BME280;16347;53.232;6.556;2022-09-03T08:17:15;101395.25;;;22.90;36.26
29359;BME280;16347;53.232;6.556;2022-09-03T08:19:47;101396.97;;;22.91;36.45
29359;BME280;16347;53.232;6.556;2022-09-03T08:22:18;101396.28;;;22.96;36.38
29359;BME280;16347;53.232;6.556;2022-09-03T08:24:53;101390.91;;;23.01;36.13
29359;BME280;16347;53.232;6.556;2022-09-03T08:27:24;101384.44;;;23.07;36.40
29359;BME280;16347;53.232;6.556;2022-09-03T08:29:55;101383.38;;;23.08;36.67
29359;BME280;16347;53.232;6.556;2022-09-03T08:32:27;101382.31;;;23.09;36.06
29359;BME280;16347;53.232;6.556;2022-09-03T08:34:58;101376.91;;;23.14;35.94
29359;BME280;16347;53.232;6.556;2022-09-03T08:37:27;101380.13;;;23.11;35.87
29359;BME280;16347;53.232;6.556;2022-09-03T08:40:01;101381.72;;;23.00;36.08
29359;BME280;16347;53.232;6.556;2022-09-03T08:42:46;101381.84;;;23.12;36.21
29359;BME280;16347;53.232;6.556;2022-09-03T08:45:20;101381.38;;;23.15;35.88
29359;BME280;16347;53.232;6.556;2022-09-03T08:47:57;101375.97;;;23.20;36.45
29359;BME280;16347;53.232;6.556;2022-09-03T08:50:35;101384.69;;;23.24;35.87
29359;BME280;16347;53.232;6.556;2022-09-03T08:53:13;101387.53;;;23.17;36.49
29359;BME280;16347;53.232;6.556;2022-09-03T08:55:51;101387.22;;;23.07;36.14
29359;BME280;16347;53.232;6.556;2022-09-03T08:58:25;101391.53;;;23.03;35.49
29359;BME280;16347;53.232;6.556;2022-09-03T09:01:10;101384.75;;;22.99;35.97
29359;BME280;16347;53.232;6.556;2022-09-03T09:03:52;101386.88;;;22.97;36.40
29359;BME280;16347;53.232;6.556;2022-09-03T09:06:31;101383.63;;;23.07;36.41
29359;BME280;16347;53.232;6.556;2022-09-03T09:09:12;101382.06;;;23.11;36.32
29359;BME280;16347;53.232;6.556;2022-09-03T09:11:53;101390.31;;;23.17;36.44
29359;BME280;16347;53.232;6.556;2022-09-03T09:14:34;101379.00;;;23.19;36.15
29359;BME280;16347;53.232;6.556;2022-09-03T09:17:20;101379.59;;;23.21;35.91
29359;BME280;16347;53.232;6.556;2022-09-03T09:20:04;101384.31;;;23.20;36.40
29359;BME280;16347;53.232;6.556;2022-09-03T09:22:37;101381.53;;;23.20;36.66
29359;BME280;16347;53.232;6.556;2022-09-03T09:25:09;101383.16;;;23.28;36.58
29359;BME280;16347;53.232;6.556;2022-09-03T09:27:47;101378.25;;;23.30;36.51
29359;BME280;16347;53.232;6.556;2022-09-03T09:30:18;101384.34;;;23.38;36.74
29359;BME280;16347;53.232;6.556;2022-09-03T09:32:46;101383.44;;;23.44;36.62
29359;BME280;16347;53.232;6.556;2022-09-03T09:35:17;101385.16;;;23.45;36.11
29359;BME280;16347;53.232;6.556;2022-09-03T09:37:48;101386.63;;;23.48;36.12
29359;BME280;16347;53.232;6.556;2022-09-03T09:40:28;101387.25;;;23.50;36.41
29359;BME280;16347;53.232;6.556;2022-09-03T09:43:04;101383.38;;;23.51;35.84
29359;BME280;16347;53.232;6.556;2022-09-03T09:45:32;101385.94;;;23.53;35.36
29359;BME280;16347;53.232;6.556;2022-09-03T09:48:02;101380.78;;;23.56;35.82
29359;BME280;16347;53.232;6.556;2022-09-03T09:50:37;101385.28;;;23.50;35.73
29359;BME280;16347;53.232;6.556;2022-09-03T09:53:07;101374.19;;;23.50;35.75
29359;BME280;16347;53.232;6.556;2022-09-03T09:55:48;101371.91;;;23.66;35.80
29359;BME280;16347;53.232;6.556;2022-09-03T09:58:19;101378.91;;;23.68;35.88
29359;BME280;16347;53.232;6.556;2022-09-03T10:00:59;101381.22;;;23.71;35.40
29359;BME280;16347;53.232;6.556;2022-09-03T10:03:31;101381.47;;;23.70;35.45
29359;BME280;16347;53.232;6.556;2022-09-03T10:06:04;101385.91;;;23.71;36.06
29359;BME280;16347;53.232;6.556;2022-09-03T10:08:47;101378.34;;;23.78;35.47
29359;BME280;16347;53.232;6.556;2022-09-03T10:11:16;101382.00;;;23.78;35.92
29359;BME280;16347;53.232;6.556;2022-09-03T10:13:46;101377.50;;;23.77;35.42
29359;BME280;16347;53.232;6.556;2022-09-03T10:16:22;101383.00;;;23.84;35.25
29359;BME280;16347;53.232;6.556;2022-09-03T10:19:04;101373.00;;;23.94;34.91
29359;BME280;16347;53.232;6.556;2022-09-03T10:21:46;101380.28;;;23.95;35.10
29359;BME280;16347;53.232;6.556;2022-09-03T10:24:33;101366.06;;;24.04;34.71
29359;BME280;16347;53.232;6.556;2022-09-03T10:27:09;101364.97;;;24.05;34.54
29359;BME280;16347;53.232;6.556;2022-09-03T10:29:40;101364.69;;;24.13;34.43
29359;BME280;16347;53.232;6.556;2022-09-03T10:32:28;101366.44;;;24.25;34.37
29359;BME280;16347;53.232;6.556;2022-09-03T10:35:16;101359.25;;;24.18;34.36
29359;BME280;16347;53.232;6.556;2022-09-03T10:37:53;101365.91;;;24.17;34.40
29359;BME280;16347;53.232;6.556;2022-09-03T10:40:28;101353.31;;;24.14;34.89
29359;BME280;16347;53.232;6.556;2022-09-03T10:43:14;101371.03;;;24.31;35.11
29359;BME280;16347;53.232;6.556;2022-09-03T10:45:55;101360.28;;;24.35;33.52
29359;BME280;16347;53.232;6.556;2022-09-03T10:48:57;101359.97;;;24.43;33.89
29359;BME280;16347;53.232;6.556;2022-09-03T10:51:40;101358.41;;;24.47;34.23
29359;BME280;16347;53.232;6.556;2022-09-03T10:54:29;101371.25;;;24.60;33.88
29359;BME280;16347;53.232;6.556;2022-09-03T10:57:09;101368.94;;;24.57;33.11
29359;BME280;16347;53.232;6.556;2022-09-03T11:00:00;101359.97;;;24.55;33.41
29359;BME280;16347;53.232;6.556;2022-09-03T11:05:33;101355.31;;;24.67;33.55
29359;BME280;16347;53.232;6.556;2022-09-03T11:08:08;101364.88;;;24.71;33.35
29359;BME280;16347;53.232;6.556;2022-09-03T11:10:45;101354.63;;;24.83;32.32
29359;BME280;16347;53.232;6.556;2022-09-03T11:13:22;101364.19;;;24.87;33.55
29359;BME280;16347;53.232;6.556;2022-09-03T11:15:55;101358.75;;;24.92;32.43
29359;BME280;16347;53.232;6.556;2022-09-03T11:18:30;101354.66;;;24.94;31.98
29359;BME280;16347;53.232;6.556;2022-09-03T11:21:05;101357.31;;;24.89;31.54
29359;BME280;16347;53.232;6.556;2022-09-03T11:23:43;101345.31;;;24.89;30.54
29359;BME280;16347;53.232;6.556;2022-09-03T11:26:17;101348.34;;;24.99;31.03
29359;BME280;16347;53.232;6.556;2022-09-03T11:28:53;101345.34;;;25.00;31.42
29359;BME280;16347;53.232;6.556;2022-09-03T11:31:33;101341.81;;;25.17;30.60
29359;BME280;16347;53.232;6.556;2022-09-03T11:34:11;101345.56;;;25.22;30.18
29359;BME280;16347;53.232;6.556;2022-09-03T11:37:15;101341.44;;;25.36;30.95
29359;BME280;16347;53.232;6.556;2022-09-03T11:39:55;101341.22;;;25.38;29.66
29359;BME280;16347;53.232;6.556;2022-09-03T11:42:34;101337.09;;;25.40;30.18
29359;BME280;16347;53.232;6.556;2022-09-03T11:45:32;101337.34;;;25.50;29.36
29359;BME280;16347;53.232;6.556;2022-09-03T11:48:18;101332.47;;;25.58;29.70
29359;BME280;16347;53.232;6.556;2022-09-03T11:50:58;101338.53;;;25.55;28.81
29359;BME280;16347;53.232;6.556;2022-09-03T11:53:33;101331.50;;;25.64;28.85
29359;BME280;16347;53.232;6.556;2022-09-03T11:56:17;101333.75;;;25.78;29.60
29359;BME280;16347;53.232;6.556;2022-09-03T11:59:13;101338.06;;;25.86;28.46
29359;BME280;16347;53.232;6.556;2022-09-03T12:01:50;101328.75;;;25.92;28.57
29359;BME280;16347;53.232;6.556;2022-09-03T12:04:24;101318.75;;;26.08;28.83
29359;BME280;16347;53.232;6.556;2022-09-03T12:07:20;101323.78;;;26.22;28.81
29359;BME280;16347;53.232;6.556;2022-09-03T12:10:16;101319.50;;;26.31;28.11
29359;BME280;16347;53.232;6.556;2022-09-03T12:12:57;101316.03;;;26.41;27.82
29359;BME280;16347;53.232;6.556;2022-09-03T12:15:49;101320.88;;;26.45;27.14
29359;BME280;16347;53.232;6.556;2022-09-03T12:18:22;101314.94;;;26.42;27.39
29359;BME280;16347;53.232;6.556;2022-09-03T12:21:03;101305.91;;;26.51;26.98
29359;BME280;16347;53.232;6.556;2022-09-03T12:23:34;101306.75;;;26.52;27.46
29359;BME280;16347;53.232;6.556;2022-09-03T12:26:10;101303.03;;;26.63;27.10
29359;BME280;16347;53.232;6.556;2022-09-03T12:28:42;101299.81;;;26.71;27.52
29359;BME280;16347;53.232;6.556;2022-09-03T12:31:17;101304.56;;;26.87;26.71
29359;BME280;16347;53.232;6.556;2022-09-03T12:33:55;101304.56;;;26.87;27.17
29359;BME280;16347;53.232;6.556;2022-09-03T12:36:34;101294.94;;;26.95;26.02
29359;BME280;16347;53.232;6.556;2022-09-03T12:39:10;101287.75;;;26.99;25.93
29359;BME280;16347;53.232;6.556;2022-09-03T12:41:54;101293.34;;;27.21;26.38
29359;BME280;16347;53.232;6.556;2022-09-03T12:44:26;101299.06;;;27.31;26.24
29359;BME280;16347;53.232;6.556;2022-09-03T12:47:06;101300.25;;;27.35;25.41
29359;BME280;16347;53.232;6.556;2022-09-03T12:50:07;101299.72;;;27.38;24.93
29359;BME280;16347;53.232;6.556;2022-09-03T12:52:43;101293.78;;;27.51;25.96
29359;BME280;16347;53.232;6.556;2022-09-03T12:55:26;101295.00;;;27.60;25.29
29359;BME280;16347;53.232;6.556;2022-09-03T12:58:04;101285.66;;;27.71;25.07
29359;BME280;16347;53.232;6.556;2022-09-03T13:00:43;101283.78;;;27.77;25.36
29359;BME280;16347;53.232;6.556;2022-09-03T13:03:18;101277.72;;;27.85;25.23
29359;BME280;16347;53.232;6.556;2022-09-03T13:05:54;101272.19;;;27.90;25.73
29359;BME280;16347;53.232;6.556;2022-09-03T13:08:27;101276.72;;;27.96;25.54
29359;BME280;16347;53.232;6.556;2022-09-03T13:11:00;101277.19;;;27.88;25.54
29359;BME280;16347;53.232;6.556;2022-09-03T13:13:34;101285.16;;;28.01;25.36
29359;BME280;16347;53.232;6.556;2022-09-03T13:19:25;101277.00;;;28.21;24.76
29359;BME280;16347;53.232;6.556;2022-09-03T13:22:04;101277.63;;;28.28;24.79
29359;BME280;16347;53.232;6.556;2022-09-03T13:24:55;101265.91;;;28.31;24.72
29359;BME280;16347;53.232;6.556;2022-09-03T13:27:32;101261.81;;;28.39;24.93
29359;BME280;16347;53.232;6.556;2022-09-03T13:30:09;101268.88;;;28.51;24.97
29359;BME280;16347;53.232;6.556;2022-09-03T13:33:01;101267.59;;;28.64;25.30
29359;BME280;16347;53.232;6.556;2022-09-03T13:35:38;101262.94;;;28.70;24.68